Time;durP1;ratioP1;P1;durP2;ratioP2;P2;SDS_P1;SDS_P2;PMS_P1;PMS_P2;Temp;Humidity;BMP_temperature;BMP_pressure;BME280_temperature;BME280_humidity;BME280_pressure;Samples;Min_cycle;Max_cycle;Signal;HPM_P1;HPM_P2
2021/05/17 00:00:56;;;;;;;7.45;6.30;;;;;;;32.52;20.09;93795.50;5035038;28;20049;-44
2021/05/17 00:03:25;;;;;;;6.43;5.75;;;;;;;31.99;20.67;93795.34;5034445;28;20053;-49
2021/05/17 00:05:53;;;;;;;7.50;5.97;;;;;;;32.20;20.64;93774.97;5035050;28;20045;-45
2021/05/17 00:08:20;;;;;;;6.90;6.20;;;;;;;32.12;20.44;93779.88;5034785;28;20061;-47
2021/05/17 00:10:48;;;;;;;8.00;6.40;;;;;;;31.44;21.23;93785.91;5035171;28;20054;-44
2021/05/17 00:13:15;;;;;;;6.28;5.68;;;;;;;32.18;20.62;93783.53;5033972;28;20076;-44
2021/05/17 00:15:43;;;;;;;7.03;5.85;;;;;;;32.36;20.01;93788.34;5035014;28;20475;-43
2021/05/17 00:18:11;;;;;;;8.95;6.07;;;;;;;31.92;20.77;93797.53;5033166;28;20052;-44
2021/05/17 00:20:38;;;;;;;9.90;6.85;;;;;;;31.79;20.62;93801.03;5035007;28;20064;-43
2021/05/17 00:23:06;;;;;;;7.53;6.32;;;;;;;33.11;19.58;93797.25;5034379;28;20045;-43
2021/05/17 00:25:33;;;;;;;7.03;6.00;;;;;;;31.77;21.21;93799.97;5034876;28;20053;-52
2021/05/17 00:28:01;;;;;;;6.85;5.75;;;;;;;31.51;21.37;93791.13;5034348;28;20053;-43
2021/05/17 00:30:31;;;;;;;9.13;5.88;;;;;;;32.91;19.53;93799.56;5034672;28;20060;-45
2021/05/17 00:32:59;;;;;;;8.77;6.10;;;;;;;32.32;19.79;93795.84;5034321;28;20053;-44
2021/05/17 00:35:27;;;;;;;8.32;6.10;;;;;;;31.93;20.46;93793.66;5034860;28;20080;-44
2021/05/17 00:37:55;;;;;;;9.23;6.47;;;;;;;31.34;21.14;93797.81;5034349;28;20065;-44
2021/05/17 00:40:23;;;;;;;8.65;6.47;;;;;;;32.00;20.25;93793.41;5034692;28;20356;-48
2021/05/17 00:42:51;;;;;;;8.32;6.65;;;;;;;32.12;20.41;93776.41;5030357;28;20451;-48
2021/05/17 00:45:19;;;;;;;7.60;6.35;;;;;;;32.09;20.27;93783.44;5017464;28;20487;-43
2021/05/17 00:47:48;;;;;;;8.85;6.70;;;;;;;31.65;20.61;93785.25;5037784;28;20052;-44
2021/05/17 00:50:20;;;;;;;7.75;6.53;;;;;;;31.63;20.45;93782.22;5020779;28;20054;-43
2021/05/17 00:52:48;;;;;;;8.30;6.65;;;;;;;31.68;20.90;93792.47;5038236;28;20060;-44
2021/05/17 00:55:16;;;;;;;9.52;6.18;;;;;;;31.96;20.10;93790.84;5038513;28;20490;-50
2021/05/17 00:57:44;;;;;;;7.55;6.63;;;;;;;32.27;19.92;93785.59;5020352;28;20049;-44
2021/05/17 01:00:14;;;;;;;7.65;6.32;;;;;;;32.27;20.05;93796.41;5020929;28;20060;-44
2021/05/17 01:02:49;;;;;;;8.05;6.43;;;;;;;31.07;21.52;93795.50;5037948;28;20053;-46
2021/05/17 01:05:45;;;;;;;7.25;6.53;;;;;;;32.11;20.45;93785.72;5025188;28;20061;-44
2021/05/17 01:08:23;;;;;;;8.15;7.35;;;;;;;32.06;20.54;93799.78;5034600;28;20049;-47
2021/05/17 01:10:54;;;;;;;11.30;7.68;;;;;;;31.71;20.99;93797.03;5018296;28;20060;-46
2021/05/17 01:13:22;;;;;;;10.68;8.63;;;;;;;32.22;20.56;93805.03;5030084;28;20050;-45
2021/05/17 01:15:49;;;;;;;12.95;9.77;;;;;;;32.28;20.74;93797.16;5038236;28;20479;-49
2021/05/17 01:18:17;;;;;;;12.40;10.55;;;;;;;32.00;21.14;93796.13;5019053;28;20053;-44
2021/05/17 01:20:48;;;;;;;13.38;10.43;;;;;;;32.14;21.14;93790.25;5037852;28;20048;-43
2021/05/17 01:25:54;;;;;;;13.27;10.23;;;;;;;31.93;21.51;93804.47;5018271;28;20050;-43
2021/05/17 01:28:27;;;;;;;11.90;10.18;;;;;;;31.45;22.08;93809.03;5023805;28;20053;-63
2021/05/17 01:30:57;;;;;;;11.75;9.70;;;;;;;31.75;21.97;93805.81;5037694;28;20049;-44
2021/05/17 01:33:31;;;;;;;12.63;10.55;;;;;;;31.70;22.09;93806.31;5037511;28;20507;-45
2021/05/17 01:36:00;;;;;;;11.20;9.98;;;;;;;32.60;20.97;93806.84;5037668;28;20049;-44
2021/05/17 01:38:54;;;;;;;10.18;8.93;;;;;;;32.01;21.64;93808.44;5037038;28;20068;-51
2021/05/17 01:41:24;;;;;;;;;;;;;;;32.26;20.99;93789.47;5037945;28;20360;-45
2021/05/17 01:43:55;;;;;;;10.23;9.07;;;;;;;31.91;21.80;93796.78;5036028;28;20116;-45
2021/05/17 01:46:30;;;;;;;10.57;9.07;;;;;;;31.87;21.82;93786.09;5037300;28;20065;-51
2021/05/17 01:49:07;;;;;;;12.57;9.82;;;;;;;31.57;21.92;93784.72;5019205;28;20392;-45
2021/05/17 01:51:35;;;;;;;11.50;10.23;;;;;;;31.81;21.94;93793.25;5037200;28;20054;-45
2021/05/17 01:54:03;;;;;;;15.13;10.80;;;;;;;31.88;21.81;93790.31;5036371;28;20049;-48
2021/05/17 01:56:30;;;;;;;14.13;10.90;;;;;;;31.70;22.04;93782.00;5003015;28;20041;-44
2021/05/17 01:59:10;;;;;;;13.57;11.23;;;;;;;31.50;22.35;93784.22;5019037;28;20049;-43
2021/05/17 02:01:37;;;;;;;15.93;11.88;;;;;;;31.79;22.03;93784.84;5037120;28;20053;-43
2021/05/17 02:04:05;;;;;;;13.52;12.10;;;;;;;31.67;22.06;93777.47;5036890;28;20045;-44
2021/05/17 02:06:33;;;;;;;12.82;11.32;;;;;;;31.95;22.12;93769.66;5035733;28;20050;-45
2021/05/17 02:09:00;;;;;;;12.90;11.60;;;;;;;31.24;22.87;93770.72;5035791;28;20049;-43
2021/05/17 02:11:28;;;;;;;14.00;11.27;;;;;;;32.30;21.69;93776.59;5035885;28;20069;-43
2021/05/17 02:14:08;;;;;;;13.15;11.00;;;;;;;32.32;21.75;93773.44;5036415;28;20045;-44
2021/05/17 02:16:35;;;;;;;12.27;10.98;;;;;;;31.75;22.23;93775.31;5018985;28;20060;-45
2021/05/17 02:19:03;;;;;;;11.85;10.60;;;;;;;31.85;22.02;93772.28;5036252;28;20049;-48
2021/05/17 02:21:30;;;;;;;12.65;11.35;;;;;;;31.93;21.90;93772.03;5036673;28;20052;-52
2021/05/17 02:23:58;;;;;;;13.23;11.73;;;;;;;31.87;22.20;93775.28;5036105;28;20045;-43
2021/05/17 02:26:26;;;;;;;14.00;11.10;;;;;;;31.88;21.91;93776.81;5012658;28;20046;-43
2021/05/17 02:28:58;;;;;;;23.48;11.73;;;;;;;31.63;22.51;93782.22;5035410;28;20365;-53
2021/05/17 02:31:28;;;;;;;12.82;11.52;;;;;;;31.96;22.09;93776.56;5019386;28;20064;-43
2021/05/17 02:33:56;;;;;;;11.93;10.73;;;;;;;31.87;22.37;93775.28;5036367;28;20045;-45
2021/05/17 02:36:23;;;;;;;15.25;12.48;;;;;;;31.72;22.28;93776.94;5036269;28;20291;-44
2021/05/17 02:38:51;;;;;;;12.93;11.55;;;;;;;31.96;22.05;93774.63;5015243;28;20049;-48
2021/05/17 02:41:22;;;;;;;12.18;10.85;;;;;;;31.87;22.08;93759.09;5016648;28;20373;-44
2021/05/17 02:43:50;;;;;;;14.48;12.73;;;;;;;32.06;21.84;93775.47;5009193;28;20049;-45
2021/05/17 02:46:18;;;;;;;15.35;13.73;;;;;;;31.82;22.12;93783.97;5016158;28;20046;-62
2021/05/17 02:48:51;;;;;;;14.65;13.15;;;;;;;32.24;22.19;93778.31;5015001;28;20053;-50
2021/05/17 02:51:19;;;;;;;15.32;13.00;;;;;;;31.70;23.07;93782.00;5016428;28;20058;-47
2021/05/17 02:54:17;;;;;;;13.82;12.27;;;;;;;32.50;21.92;93787.84;5016242;28;20119;-58
2021/05/17 02:57:02;;;;;;;14.98;12.38;;;;;;;31.84;22.26;93792.38;5016115;28;20050;-43
2021/05/17 02:59:51;;;;;;;16.10;14.02;;;;;;;31.84;22.56;93792.38;5016159;28;20072;-43
2021/05/17 03:02:21;;;;;;;15.20;13.60;;;;;;;32.25;21.82;93792.56;5031317;28;20044;-44
2021/05/17 03:04:52;;;;;;;16.90;13.75;;;;;;;32.35;21.69;93797.66;4999066;28;20042;-44
2021/05/17 03:07:22;;;;;;;16.73;13.35;;;;;;;31.94;22.04;93800.56;5015023;28;20045;-43
2021/05/17 03:09:50;;;;;;;15.52;13.80;;;;;;;32.01;22.05;93811.13;5014835;28;20061;-44
2021/05/17 03:12:22;;;;;;;18.05;14.35;;;;;;;31.97;22.20;93805.09;5015648;28;20050;-44
2021/05/17 03:14:51;;;;;;;19.33;14.77;;;;;;;31.26;22.62;93808.84;5014713;28;20060;-44
2021/05/17 03:17:19;;;;;;;16.48;14.48;;;;;;;31.90;22.13;93806.09;5014651;28;20046;-48
2021/05/17 03:19:50;;;;;;;18.17;14.60;;;;;;;32.06;22.01;93799.78;5015729;28;20456;-44
2021/05/17 03:22:17;;;;;;;18.05;14.45;;;;;;;31.72;22.08;93806.66;5015552;28;20050;-51
2021/05/17 03:24:45;;;;;;;16.55;13.68;;;;;;;31.84;22.14;93803.19;5015895;28;20064;-44
2021/05/17 03:27:22;;;;;;;16.10;14.32;;;;;;;31.39;22.62;93799.97;5014777;28;20483;-43
2021/05/17 03:29:50;;;;;;;18.00;14.57;;;;;;;32.24;21.54;93796.47;5015711;28;20045;-46
2021/05/17 03:32:17;;;;;;;17.83;15.18;;;;;;;32.53;21.62;93815.19;5015295;28;20057;-53
2021/05/17 03:34:45;;;;;;;17.27;15.40;;;;;;;32.25;21.32;93823.06;5015769;28;20084;-50
2021/05/17 03:37:12;;;;;;;17.20;15.27;;;;;;;32.16;21.88;93823.00;5021629;28;20057;-44
2021/05/17 03:39:39;;;;;;;19.38;15.52;;;;;;;32.00;22.04;93823.13;5035150;28;20049;-44
2021/05/17 03:42:06;;;;;;;17.65;15.60;;;;;;;31.95;21.99;93826.41;5035299;28;20049;-51
2021/05/17 03:44:33;;;;;;;16.73;14.55;;;;;;;32.42;21.65;93823.69;5033830;28;20049;-43
2021/05/17 03:47:01;;;;;;;17.00;14.45;;;;;;;32.08;22.04;93837.94;5034780;28;20060;-44
2021/05/17 03:49:28;;;;;;;18.73;15.43;;;;;;;32.03;21.83;93838.50;5034755;28;20049;-45
2021/05/17 03:51:55;;;;;;;18.20;15.95;;;;;;;31.84;22.15;93841.03;5017588;28;20057;-43
2021/05/17 03:54:22;;;;;;;20.38;16.77;;;;;;;31.96;22.28;93831.38;5017600;28;20041;-43
2021/05/17 03:56:49;;;;;;;21.58;16.45;;;;;;;32.31;21.62;93834.88;5034833;28;20041;-43
2021/05/17 03:59:17;;;;;;;20.42;16.73;;;;;;;31.81;22.25;93825.69;5034882;28;20053;-48
2021/05/17 04:01:46;;;;;;;20.15;16.70;;;;;;;31.35;23.00;93840.59;5034725;28;20364;-43
2021/05/17 04:04:14;;;;;;;21.05;17.30;;;;;;;32.35;21.50;93840.94;5017371;28;20053;-45
2021/05/17 04:06:55;;;;;;;22.08;17.67;;;;;;;32.63;21.59;93830.31;5033217;28;20045;-44
2021/05/17 04:14:54;;;;;;;20.33;17.40;;;;;;;32.86;21.25;93823.75;5034545;28;20448;-61
2021/05/17 04:17:21;;;;;;;22.25;17.95;;;;;;;32.85;20.93;93817.56;5034457;28;20475;-66
2021/05/17 04:19:48;;;;;;;21.40;18.77;;;;;;;32.09;21.73;93828.66;5034662;28;20053;-56
2021/05/17 04:22:15;;;;;;;21.67;18.10;;;;;;;31.71;22.53;93829.47;5021319;28;20053;-59
2021/05/17 04:24:44;;;;;;;21.65;18.75;;;;;;;31.68;22.58;93822.19;5038909;28;20041;-51
2021/05/17 04:27:11;;;;;;;24.00;19.02;;;;;;;32.04;22.52;93818.41;5038883;28;21302;-44
2021/05/17 04:29:38;;;;;;;19.27;16.27;;;;;;;32.93;21.41;93824.22;5029400;28;20049;-46
2021/05/17 04:32:06;;;;;;;16.27;14.20;;;;;;;34.45;19.75;93826.88;5019146;28;20050;-44
2021/05/17 04:34:33;;;;;;;17.88;13.90;;;;;;;34.65;19.52;93823.72;5025633;28;20058;-43
2021/05/17 04:37:00;;;;;;;15.20;13.60;;;;;;;34.37;19.83;93831.84;5017440;28;20059;-43
2021/05/17 04:39:27;;;;;;;16.15;14.15;;;;;;;34.82;19.70;93828.34;5025099;28;20435;-44
2021/05/17 04:41:54;;;;;;;14.52;12.95;;;;;;;34.58;19.69;93819.31;5038187;28;20042;-66
2021/05/17 04:44:21;;;;;;;18.38;14.77;;;;;;;35.39;18.68;93820.41;5038375;28;20057;-42
2021/05/17 04:46:48;;;;;;;20.27;13.30;;;;;;;35.53;18.70;93819.75;5038468;28;20356;-42
2021/05/17 04:49:16;;;;;;;18.02;15.68;;;;;;;34.02;19.89;93823.19;5032452;28;20058;-42
2021/05/17 04:51:43;;;;;;;18.13;15.80;;;;;;;33.02;21.05;93813.44;5018680;28;20060;-45
2021/05/17 04:54:10;;;;;;;18.13;15.15;;;;;;;33.27;20.60;93804.38;5004340;28;20453;-43
2021/05/17 04:56:37;;;;;;;18.42;15.60;;;;;;;32.74;21.14;93800.91;5018695;28;20053;-43
2021/05/17 04:59:04;;;;;;;19.63;17.00;;;;;;;32.59;21.69;93808.06;5023891;28;20057;-42
2021/05/17 05:01:31;;;;;;;19.08;16.23;;;;;;;32.07;22.58;93804.00;5020913;28;20333;-42
2021/05/17 05:03:59;;;;;;;18.63;16.00;;;;;;;32.43;21.68;93809.75;5038038;28;20052;-42
2021/05/17 05:06:26;;;;;;;20.15;16.83;;;;;;;32.92;21.45;93819.25;5019234;28;20436;-42
2021/05/17 05:08:53;;;;;;;20.83;16.10;;;;;;;32.67;22.28;93820.13;5033441;28;20371;-43
2021/05/17 05:11:20;;;;;;;19.75;16.10;;;;;;;32.54;21.77;93825.59;5037990;28;20053;-43
2021/05/17 05:13:48;;;;;;;22.33;17.33;;;;;;;33.08;21.50;93819.81;5037610;28;20057;-42
2021/05/17 05:16:15;;;;;;;23.92;17.92;;;;;;;32.25;22.21;93814.97;5037928;28;20064;-52
2021/05/17 05:18:43;;;;;;;23.77;18.42;;;;;;;33.07;21.45;93823.72;5037322;28;20045;-51
2021/05/17 05:21:10;;;;;;;23.90;19.05;;;;;;;32.28;22.37;93824.97;5037917;28;20061;-40
2021/05/17 05:23:37;;;;;;;24.45;18.63;;;;;;;32.42;22.35;93819.03;5037697;28;20443;-40
2021/05/17 05:28:46;;;;;;;21.90;17.35;;;;;;;32.14;22.67;93841.63;5037337;28;20053;-40
2021/05/17 05:34:07;;;;;;;21.30;16.30;;;;;;;32.69;22.25;93828.56;5007330;28;20042;-40
2021/05/17 05:36:34;;;;;;;20.67;16.10;;;;;;;32.88;21.94;93832.94;5037451;28;20779;-41
2021/05/17 05:39:02;;;;;;;20.35;17.15;;;;;;;32.58;22.15;93828.19;5036942;28;20054;-40
2021/05/17 05:41:30;;;;;;;21.60;17.33;;;;;;;32.82;21.56;93826.59;5037520;28;20046;-40
2021/05/17 05:43:57;;;;;;;21.70;18.30;;;;;;;32.68;21.65;93827.03;5037100;28;20056;-40
2021/05/17 05:46:24;;;;;;;20.58;15.57;;;;;;;32.46;22.29;93825.09;5037319;28;20050;-40
2021/05/17 05:48:51;;;;;;;21.33;17.02;;;;;;;32.88;22.03;93822.09;5036595;28;20060;-40
2021/05/17 05:51:21;;;;;;;21.45;17.02;;;;;;;32.65;22.15;93825.22;5032558;28;20050;-44
2021/05/17 05:53:49;;;;;;;19.38;16.80;;;;;;;33.05;22.28;93836.94;5017506;28;20364;-66
2021/05/17 05:56:17;;;;;;;19.30;16.35;;;;;;;33.84;21.32;93828.59;5017504;28;20057;-47
2021/05/17 05:58:46;;;;;;;22.02;16.38;;;;;;;34.16;20.59;93836.19;5029886;28;20060;-51
2021/05/17 06:01:13;;;;;;;19.48;16.75;;;;;;;34.12;20.73;93822.00;5037209;28;20049;-41
2021/05/17 06:03:41;;;;;;;19.02;16.60;;;;;;;32.88;22.00;93816.69;5036980;28;20044;-40
2021/05/17 06:06:08;;;;;;;20.70;17.17;;;;;;;33.10;21.82;93803.13;5033648;28;20475;-40
2021/05/17 06:08:37;;;;;;;17.48;15.15;;;;;;;32.27;22.15;93791.00;5028239;28;20053;-40
2021/05/17 06:11:05;;;;;;;21.02;15.80;;;;;;;32.45;21.88;93791.13;5036782;28;20456;-41
2021/05/17 06:13:33;;;;;;;15.85;14.15;;;;;;;32.67;21.54;93790.38;5029051;28;20072;-40
2021/05/17 06:16:01;;;;;;;18.67;16.30;;;;;;;33.02;21.72;93783.66;5036630;28;20049;-42
2021/05/17 06:18:28;;;;;;;17.70;15.48;;;;;;;32.65;21.85;93776.53;5036335;28;20045;-40
2021/05/17 06:20:56;;;;;;;19.42;15.57;;;;;;;32.41;22.28;93776.97;5036681;28;20064;-40
2021/05/17 06:23:23;;;;;;;19.48;16.02;;;;;;;32.49;22.68;93774.75;5035517;28;20042;-40
2021/05/17 06:25:51;;;;;;;19.30;17.27;;;;;;;32.72;22.40;93787.84;5035570;28;20045;-41
2021/05/17 06:28:20;;;;;;;20.52;18.30;;;;;;;33.17;21.90;93794.72;5036476;28;20053;-41
2021/05/17 06:30:56;;;;;;;23.80;21.27;;;;;;;33.01;21.69;93798.41;5019058;28;20045;-40
2021/05/17 06:33:24;;;;;;;19.85;16.75;;;;;;;34.06;21.45;93802.09;5036338;28;20049;-41
2021/05/17 06:35:56;;;;;;;20.98;17.85;;;;;;;33.04;22.20;93791.34;5006349;28;20050;-40
2021/05/17 06:38:24;;;;;;;20.75;18.55;;;;;;;33.63;21.58;93792.97;5024743;28;20054;-41
2021/05/17 06:40:56;;;;;;;20.27;18.08;;;;;;;33.30;22.01;93781.06;5036162;28;20042;-41
2021/05/17 06:43:25;;;;;;;19.65;17.48;;;;;;;33.61;21.73;93768.28;5035454;28;20042;-40
2021/05/17 06:45:52;;;;;;;20.33;18.33;;;;;;;33.66;21.64;93775.81;5036544;28;20379;-41
2021/05/17 06:48:19;;;;;;;21.20;19.05;;;;;;;34.92;19.49;93778.28;5035738;28;20072;-40
2021/05/17 06:50:47;;;;;;;21.83;19.40;;;;;;;34.01;20.69;93767.47;5036158;28;20061;-40
2021/05/17 06:53:14;;;;;;;21.05;18.95;;;;;;;34.20;20.73;93766.25;5036068;28;20057;-41
2021/05/17 06:58:23;;;;;;;21.60;19.20;;;;;;;35.27;19.79;93764.28;5025498;28;20055;-40
2021/05/17 07:00:51;;;;;;;23.25;19.33;;;;;;;35.17;20.43;93760.13;5035607;28;20065;-43
2021/05/17 07:03:19;;;;;;;21.58;19.30;;;;;;;35.00;20.67;93767.09;5017367;28;20049;-40
2021/05/17 07:05:48;;;;;;;22.80;19.65;;;;;;;34.73;20.82;93757.78;5002474;28;20056;-41
2021/05/17 07:13:48;;;;;;;24.75;19.67;;;;;;;35.64;20.57;93753.25;5022545;28;20054;-41
2021/05/17 07:16:16;;;;;;;27.10;24.27;;;;;;;34.81;21.04;93755.50;5035370;28;20494;-41
2021/05/17 07:18:43;;;;;;;23.65;21.20;;;;;;;35.33;20.69;93764.41;5035407;28;20041;-41
2021/05/17 07:23:39;;;;;;;20.70;18.70;;;;;;;35.84;19.86;93756.19;5035696;28;20056;-41
2021/05/17 07:26:17;;;;;;;21.85;19.05;;;;;;;35.94;20.01;93765.78;5035745;28;20048;-41
2021/05/17 07:28:48;;;;;;;21.80;19.27;;;;;;;35.08;21.00;93762.84;5035647;28;20049;-41
2021/05/17 07:31:15;;;;;;;20.03;17.93;;;;;;;34.55;21.14;93760.53;5035573;28;20056;-40
2021/05/17 07:33:43;;;;;;;20.13;18.02;;;;;;;35.73;20.32;93769.53;5035177;28;20485;-42
2021/05/17 07:36:11;;;;;;;18.38;16.35;;;;;;;35.65;19.95;93746.59;5035310;28;20045;-41
2021/05/17 07:38:40;;;;;;;17.17;15.43;;;;;;;35.59;20.15;93743.78;5034322;28;20060;-41
2021/05/17 07:41:07;;;;;;;16.70;14.52;;;;;;;34.48;21.90;93745.31;5035373;28;20060;-40
2021/05/17 07:43:35;;;;;;;16.55;14.38;;;;;;;35.16;21.13;93748.50;5035237;28;20053;-41
2021/05/17 07:46:02;;;;;;;16.95;15.15;;;;;;;35.09;21.13;93743.38;5034908;28;20049;-41
2021/05/17 07:48:29;;;;;;;19.65;17.00;;;;;;;35.57;20.23;93737.28;5034495;28;20060;-40
2021/05/17 07:50:56;;;;;;;20.13;16.45;;;;;;;35.33;20.63;93724.41;5034803;28;20049;-41
2021/05/17 07:53:23;;;;;;;20.23;18.10;;;;;;;35.72;20.13;93717.13;5016542;28;20069;-42
2021/05/17 07:55:52;;;;;;;32.97;26.52;;;;;;;35.86;20.61;93718.41;5014728;28;20053;-41
2021/05/17 07:58:20;;;;;;;19.83;15.82;;;;;;;35.52;20.71;93736.72;5027470;28;20452;-42
2021/05/17 08:00:47;;;;;;;19.65;17.55;;;;;;;35.39;20.56;93732.72;5034561;28;20053;-41
2021/05/17 08:03:14;;;;;;;20.95;17.77;;;;;;;35.96;19.50;93736.16;5035168;28;20044;-42
2021/05/17 08:05:41;;;;;;;21.73;18.05;;;;;;;35.34;20.38;93736.06;5022231;28;20053;-41
2021/05/17 08:08:09;;;;;;;19.55;17.48;;;;;;;35.16;20.96;93737.63;5030542;28;20049;-40
2021/05/17 08:10:36;;;;;;;20.33;17.25;;;;;;;36.04;19.84;93747.44;5034373;28;20088;-41
2021/05/17 08:13:03;;;;;;;22.65;17.13;;;;;;;34.98;21.05;93740.41;5034270;28;20411;-41
2021/05/17 08:15:30;;;;;;;21.08;18.08;;;;;;;35.33;20.15;93735.28;5034900;28;20050;-41
2021/05/17 08:17:58;;;;;;;22.63;18.08;;;;;;;35.23;20.34;93733.81;5032835;28;20363;-41
2021/05/17 08:20:25;;;;;;;21.05;17.95;;;;;;;35.34;20.40;93736.06;5034501;28;20057;-42
2021/05/17 08:22:52;;;;;;;27.55;21.08;;;;;;;35.32;20.52;93738.47;5034855;28;20029;-42
2021/05/17 08:25:19;;;;;;;29.35;24.50;;;;;;;35.17;20.71;93735.66;5034887;28;20399;-42
2021/05/17 08:27:46;;;;;;;28.77;21.35;;;;;;;35.31;20.38;93743.13;5034185;28;20045;-42
2021/05/17 08:30:14;;;;;;;23.95;21.40;;;;;;;34.61;20.83;93751.34;5034628;28;20045;-41
2021/05/17 08:32:41;;;;;;;24.33;20.48;;;;;;;35.15;20.39;93751.69;5017390;28;20049;-41
2021/05/17 08:35:09;;;;;;;26.38;21.85;;;;;;;34.49;21.34;93765.06;5030147;28;20048;-41
2021/05/17 08:37:36;;;;;;;25.77;21.70;;;;;;;34.73;21.03;93762.47;5034448;28;20061;-41
2021/05/17 08:40:04;;;;;;;24.05;21.38;;;;;;;34.40;21.27;93765.09;5034431;28;20048;-41
2021/05/17 08:42:32;;;;;;;32.38;23.35;;;;;;;33.79;21.82;93767.53;5028828;28;20050;-40
2021/05/17 08:45:01;;;;;;;24.77;22.13;;;;;;;34.53;20.92;93752.84;5031039;28;20072;-41
2021/05/17 08:47:28;;;;;;;27.83;21.42;;;;;;;34.86;20.93;93758.38;5033760;28;20367;-41
2021/05/17 08:49:55;;;;;;;24.70;21.55;;;;;;;34.71;21.29;93749.34;5016367;28;20050;-41
2021/05/17 08:52:24;;;;;;;27.38;22.13;;;;;;;34.16;22.00;93748.66;5034413;28;20045;-42
2021/05/17 08:54:53;;;;;;;23.58;21.08;;;;;;;35.21;21.10;93752.56;5017633;28;20053;-41
2021/05/17 08:57:20;;;;;;;22.35;20.05;;;;;;;35.67;19.86;93741.47;5034657;28;20456;-42
2021/05/17 08:59:47;;;;;;;22.35;19.95;;;;;;;34.21;22.45;93740.66;5033671;28;20042;-41
2021/05/17 09:02:14;;;;;;;22.33;20.05;;;;;;;34.96;21.58;93744.78;5034471;28;20041;-40
2021/05/17 09:05:31;;;;;;;21.83;19.63;;;;;;;34.65;22.22;93756.63;5034480;28;20057;-42
2021/05/17 09:08:02;;;;;;;21.95;19.65;;;;;;;34.47;22.08;93740.34;5035247;28;20045;-41
2021/05/17 09:10:33;;;;;;;25.77;19.75;;;;;;;34.26;22.75;93750.13;5037757;28;20045;-41
2021/05/17 09:13:07;;;;;;;23.05;19.15;;;;;;;34.27;22.97;93741.53;5037797;28;20061;-41
2021/05/17 09:15:43;;;;;;;38.83;34.28;;;;;;;34.11;22.50;93749.25;5038158;28;20049;-41
2021/05/17 09:18:21;;;;;;;14.32;11.38;;;;;;;34.89;21.01;93752.06;5037219;28;20049;-48
2021/05/17 09:20:50;;;;;;;7.10;6.38;;;;;;;34.96;21.11;93747.50;5037604;28;20058;-41
2021/05/17 09:23:26;;;;;;;5.32;4.18;;;;;;;34.13;22.01;93736.00;5030290;28;20387;-41
2021/05/17 09:26:07;;;;;;;4.68;3.30;;;;;;;34.40;21.99;93732.53;5018285;28;20471;-41
2021/05/17 09:28:44;;;;;;;4.13;2.80;;;;;;;34.16;22.90;93730.41;5025162;28;20064;-40
2021/05/17 09:31:21;;;;;;;6.45;2.30;;;;;;;34.74;22.60;93720.56;5029420;28;20060;-41
2021/05/17 09:33:56;;;;;;;3.72;2.30;;;;;;;35.16;20.86;93726.00;5018030;28;20056;-42
2021/05/17 09:36:39;;;;;;;5.20;1.92;;;;;;;35.34;20.42;93723.22;5017894;28;20046;-41
2021/05/17 09:39:16;;;;;;;3.08;1.70;;;;;;;35.03;21.07;93720.03;5028759;28;20057;-41
2021/05/17 09:41:44;;;;;;;3.15;1.90;;;;;;;34.92;20.81;93715.84;5023195;28;20506;-40
2021/05/17 09:44:13;;;;;;;3.45;1.88;;;;;;;34.77;21.02;93714.94;5027485;28;20048;-42
2021/05/17 09:47:23;;;;;;;3.05;1.70;;;;;;;34.50;21.23;93701.47;5037270;28;20053;-41
2021/05/17 09:49:59;;;;;;;2.88;1.88;;;;;;;35.31;20.15;93698.91;4992554;28;20492;-42
2021/05/17 09:52:28;;;;;;;4.07;2.00;;;;;;;34.84;20.85;93678.59;5015878;28;20057;-40
2021/05/17 09:54:57;;;;;;;2.95;1.83;;;;;;;35.24;20.37;93689.91;5017170;28;20050;-41
2021/05/17 09:57:30;;;;;;;2.67;1.70;;;;;;;34.40;21.29;93698.03;5017730;28;20057;-41
2021/05/17 10:00:05;;;;;;;3.05;1.73;;;;;;;35.08;20.67;93692.25;5034703;28;20064;-41
2021/05/17 10:02:44;;;;;;;2.33;1.60;;;;;;;35.14;20.27;93691.16;5037032;28;20653;-41
2021/05/17 10:05:13;;;;;;;1.92;1.45;;;;;;;35.39;20.09;93681.84;5037214;28;20057;-41
2021/05/17 10:07:45;;;;;;;2.08;1.42;;;;;;;35.81;19.13;93675.53;5037308;28;20045;-40
2021/05/17 10:10:13;;;;;;;3.88;1.67;;;;;;;35.03;19.61;93668.44;5036285;28;20384;-42
2021/05/17 10:12:43;;;;;;;3.17;1.60;;;;;;;34.70;20.23;93673.81;5037185;28;20045;-41
2021/05/17 10:15:12;;;;;;;3.25;1.40;;;;;;;36.08;18.29;93688.91;5036796;28;20460;-41
2021/05/17 10:17:40;;;;;;;2.17;1.20;;;;;;;35.62;18.97;93671.44;5036633;28;20412;-41
2021/05/17 10:20:10;;;;;;;1.60;1.10;;;;;;;35.79;18.38;93672.53;5035358;28;20377;-41
2021/05/17 10:22:37;;;;;;;4.35;2.50;;;;;;;36.08;18.93;93690.91;5036826;28;20460;-42
2021/05/17 10:25:06;;;;;;;5.60;3.83;;;;;;;35.84;18.87;93694.41;5036756;28;20060;-42
2021/05/17 10:27:39;;;;;;;6.35;4.82;;;;;;;35.73;19.73;93687.97;5036831;28;20042;-42
2021/05/17 10:30:09;;;;;;;8.55;4.70;;;;;;;35.00;20.51;93696.50;5035128;28;20053;-41
2021/05/17 10:32:44;;;;;;;2.65;2.30;;;;;;;35.38;19.37;93693.91;5036532;28;20049;-42
2021/05/17 10:35:17;;;;;;;7.97;6.15;;;;;;;35.20;20.44;93683.13;5036707;28;20057;-40
2021/05/17 10:37:46;;;;;;;8.50;6.32;;;;;;;34.59;21.44;93669.63;5036712;28;20049;-41
2021/05/17 10:40:39;;;;;;;7.63;6.55;;;;;;;34.95;21.35;93667.28;5033359;28;20041;-41
2021/05/17 10:48:30;;;;;;;9.60;6.90;;;;;;;34.97;21.10;93668.31;5034785;28;20060;-41
2021/05/17 10:51:19;;;;;;;10.77;7.07;;;;;;;34.63;21.81;93664.81;5035730;28;20056;-41
2021/05/17 10:53:55;;;;;;;9.95;6.95;;;;;;;34.98;21.26;93675.25;5036316;28;20041;-43
2021/05/17 10:57:00;;;;;;;8.15;6.70;;;;;;;34.98;21.38;93677.97;5032740;28;20049;-41
2021/05/17 11:02:22;;;;;;;8.13;7.07;;;;;;;34.45;22.09;93670.28;5035928;28;20076;-40
2021/05/17 11:04:49;;;;;;;8.45;6.97;;;;;;;34.80;21.43;93684.19;5022703;28;20050;-41
2021/05/17 11:07:25;;;;;;;7.90;5.93;;;;;;;35.82;20.27;93685.19;5016197;28;20357;-41
2021/05/17 11:10:11;;;;;;;11.63;6.95;;;;;;;34.76;21.80;93678.16;5027347;28;20045;-41
2021/05/17 11:12:41;;;;;;;9.00;7.20;;;;;;;34.39;21.99;93690.34;5035697;28;20061;-41
2021/05/17 11:15:14;;;;;;;10.73;6.72;;;;;;;35.34;20.64;93682.47;5034520;28;20387;-41
2021/05/17 11:17:53;;;;;;;11.68;7.30;;;;;;;35.03;21.28;93684.72;5035653;28;20053;-42
2021/05/17 11:20:56;;;;;;;10.20;7.32;;;;;;;35.24;20.80;93675.56;5034678;28;20049;-41
2021/05/17 11:23:27;;;;;;;9.75;7.03;;;;;;;35.50;20.65;93679.38;5035829;28;20049;-40
2021/05/17 11:26:05;;;;;;;8.45;6.63;;;;;;;35.33;20.63;93675.50;5018262;28;20392;-41
2021/05/17 11:28:41;;;;;;;8.90;6.95;;;;;;;34.92;21.28;93685.97;5035205;28;20053;-41
2021/05/17 11:31:57;;;;;;;11.77;6.65;;;;;;;34.55;21.73;93677.16;5034813;28;20041;-41
2021/05/17 11:33:59;;;;;;;7.68;6.28;;;;;;;34.23;21.84;93681.28;5024891;28;20060;-40
2021/05/17 11:36:47;;;;;;;8.88;6.38;;;;;;;34.98;20.95;93683.38;5035417;28;20048;-41
2021/05/17 11:39:27;;;;;;;8.05;6.13;;;;;;;35.24;20.86;93678.28;5035263;28;20368;-41
2021/05/17 11:41:57;;;;;;;8.32;6.25;;;;;;;34.81;21.68;93671.34;5034651;28;20045;-41
2021/05/17 11:44:26;;;;;;;9.18;6.05;;;;;;;35.24;20.79;93689.91;5034964;28;20053;-41
2021/05/17 11:47:03;;;;;;;8.00;6.75;;;;;;;35.00;21.05;93688.34;5035004;28;20049;-41
2021/05/17 11:49:32;;;;;;;8.23;6.30;;;;;;;34.68;21.64;93692.53;5034596;28;20045;-40
2021/05/17 11:52:10;;;;;;;8.57;6.00;;;;;;;34.82;21.39;93698.03;5034610;28;20061;-40
2021/05/17 11:54:43;;;;;;;9.48;6.25;;;;;;;35.09;21.21;93693.75;5035103;28;20049;-41
2021/05/17 11:57:10;;;;;;;8.15;6.35;;;;;;;34.62;21.87;93678.81;5035174;28;20057;-41
2021/05/17 11:59:38;;;;;;;10.88;6.68;;;;;;;35.24;21.19;93686.44;5033620;28;20041;-41
2021/05/17 12:02:08;;;;;;;9.73;6.63;;;;;;;34.28;22.02;93683.38;5035122;28;20041;-41
2021/05/17 12:04:39;;;;;;;7.03;6.18;;;;;;;34.46;21.85;93671.78;5035137;28;20052;-44
2021/05/17 12:07:07;;;;;;;7.93;6.18;;;;;;;34.66;22.04;93679.41;5035022;28;20384;-41
2021/05/17 12:09:43;;;;;;;8.52;6.07;;;;;;;34.81;22.41;93674.81;5034422;28;20121;-41